createdAt,value
2023-02-27T00:02:17.935Z,1.21
2023-02-27T00:04:45.778Z,1.18
2023-02-27T00:07:14.918Z,1.14
2023-02-27T00:09:42.716Z,1.13
2023-02-27T00:12:11.998Z,1.09
2023-02-27T00:14:39.853Z,1.09
2023-02-27T00:17:07.981Z,1.02
2023-02-27T00:19:35.802Z,0.99
2023-02-27T00:22:03.593Z,1.00
2023-02-27T00:24:32.779Z,1.02
2023-02-27T00:27:00.634Z,1.00
2023-02-27T00:29:28.851Z,1.00
2023-02-27T00:31:56.855Z,0.96
2023-02-27T00:34:25.491Z,0.98
2023-02-27T00:36:54.102Z,0.97
2023-02-27T00:39:21.867Z,0.96
2023-02-27T00:41:51.031Z,0.92
2023-02-27T00:44:18.828Z,0.86
2023-02-27T00:46:47.109Z,0.78
2023-02-27T00:49:14.910Z,0.80
2023-02-27T00:51:42.982Z,0.83
2023-02-27T00:54:10.737Z,0.75
2023-02-27T00:56:38.527Z,0.68
2023-02-27T00:59:08.020Z,0.66
2023-02-27T01:01:36.100Z,0.70
2023-02-27T01:04:03.895Z,0.65
2023-02-27T01:06:31.670Z,0.55
2023-02-27T01:08:59.438Z,0.49
2023-02-27T01:11:27.611Z,0.44
2023-02-27T01:13:55.665Z,0.41
2023-02-27T01:16:25.440Z,0.47
2023-02-27T01:18:53.537Z,0.50
2023-02-27T01:21:21.833Z,0.49
2023-02-27T01:23:49.799Z,0.44
2023-02-27T01:26:20.255Z,0.39
2023-02-27T01:28:48.138Z,0.35
2023-02-27T01:31:16.224Z,0.33
2023-02-27T01:33:45.400Z,0.25
2023-02-27T01:36:13.189Z,0.17
2023-02-27T01:38:40.979Z,0.16
2023-02-27T01:41:08.895Z,0.14
2023-02-27T01:43:55.304Z,0.11
2023-02-27T01:46:23.416Z,0.08
2023-02-27T01:48:55.678Z,0.06
2023-02-27T01:51:23.653Z,0.05
2023-02-27T01:53:54.193Z,0.00
2023-02-27T01:56:24.788Z,0.01
2023-02-27T01:58:56.955Z,-0.05
2023-02-27T02:01:26.712Z,-0.01
2023-02-27T02:04:02.608Z,-0.03
2023-02-27T02:06:37.114Z,-0.02
2023-02-27T02:09:08.362Z,-0.02
2023-02-27T02:11:36.487Z,-0.08
2023-02-27T02:14:04.309Z,-0.18
2023-02-27T02:16:55.065Z,-0.20
2023-02-27T02:20:07.428Z,-0.23
2023-02-27T02:23:09.710Z,-0.26
2023-02-27T02:26:05.182Z,-0.22
2023-02-27T02:29:14.337Z,-0.23
2023-02-27T02:32:26.289Z,-0.30
2023-02-27T02:35:15.963Z,-0.33
2023-02-27T02:38:09.267Z,-0.38
2023-02-27T02:40:44.806Z,-0.35
2023-02-27T02:43:20.918Z,-0.37
2023-02-27T02:45:59.801Z,-0.46
2023-02-27T02:48:34.041Z,-0.54
2023-02-27T02:51:09.101Z,-0.52
2023-02-27T02:53:44.462Z,-0.54
2023-02-27T02:56:20.607Z,-0.50
2023-02-27T02:58:59.716Z,-0.53
2023-02-27T03:01:34.515Z,-0.61
2023-02-27T03:04:08.925Z,-0.69
2023-02-27T03:06:41.473Z,-0.67
2023-02-27T03:09:16.174Z,-0.68
2023-02-27T03:11:49.534Z,-0.74
2023-02-27T03:14:22.814Z,-0.76
2023-02-27T03:16:55.506Z,-0.80
2023-02-27T03:19:26.438Z,-0.79
2023-02-27T03:21:59.689Z,-0.81
2023-02-27T03:24:33.613Z,-0.81
2023-02-27T03:27:05.135Z,-0.83
2023-02-27T03:29:44.966Z,-0.82
2023-02-27T03:32:18.745Z,-0.86
2023-02-27T03:34:46.997Z,-0.88
2023-02-27T03:37:27.620Z,-0.93
2023-02-27T03:40:06.469Z,-0.96
2023-02-27T03:42:41.632Z,-0.99
2023-02-27T03:45:25.471Z,-0.95
2023-02-27T03:47:53.761Z,-0.93
2023-02-27T03:50:22.297Z,-0.94
2023-02-27T03:52:51.086Z,-0.94
2023-02-27T03:55:22.788Z,-0.95
2023-02-27T03:57:52.834Z,-0.98
2023-02-27T04:00:22.982Z,-0.97
2023-02-27T04:02:53.617Z,-0.92
2023-02-27T04:05:25.500Z,-0.92
2023-02-27T04:08:16.390Z,-0.92
2023-02-27T04:10:57.342Z,-0.89
2023-02-27T04:13:46.913Z,-0.90
2023-02-27T04:16:37.703Z,-0.94
2023-02-27T04:19:18.617Z,-0.92
2023-02-27T04:21:55.209Z,-0.94
2023-02-27T04:24:37.256Z,-0.96
2023-02-27T04:27:16.432Z,-0.99
2023-02-27T04:29:56.623Z,-1.01
2023-02-27T04:32:34.190Z,-1.07
2023-02-27T04:35:07.063Z,-1.09
2023-02-27T04:37:43.457Z,-1.12
2023-02-27T04:40:14.474Z,-1.14
2023-02-27T04:42:48.239Z,-1.18
2023-02-27T04:45:21.874Z,-1.19
2023-02-27T04:47:54.875Z,-1.18
2023-02-27T04:50:28.077Z,-1.19
2023-02-27T04:53:01.228Z,-1.21
2023-02-27T04:55:34.030Z,-1.24
2023-02-27T04:58:10.502Z,-1.25
2023-02-27T05:00:42.792Z,-1.29
2023-02-27T05:03:15.634Z,-1.32
2023-02-27T05:05:46.529Z,-1.35
2023-02-27T05:08:20.260Z,-1.36
2023-02-27T05:10:53.831Z,-1.37
2023-02-27T05:13:28.399Z,-1.39
2023-02-27T05:16:04.286Z,-1.40
2023-02-27T05:18:32.397Z,-1.42
2023-02-27T05:21:10.361Z,-1.42
2023-02-27T05:23:44.895Z,-1.43
2023-02-27T05:26:18.976Z,-1.42
2023-02-27T05:28:55.136Z,-1.43
2023-02-27T05:31:29.589Z,-1.40
2023-02-27T05:34:05.036Z,-1.40
2023-02-27T05:36:36.062Z,-1.39
2023-02-27T05:39:06.732Z,-1.40
2023-02-27T05:41:38.312Z,-1.38
2023-02-27T05:44:09.988Z,-1.40
2023-02-27T05:46:44.788Z,-1.45
2023-02-27T05:49:18.368Z,-1.49
2023-02-27T05:51:50.504Z,-1.51
2023-02-27T05:54:25.254Z,-1.51
2023-02-27T05:56:57.139Z,-1.53
2023-02-27T05:59:30.171Z,-1.55
2023-02-27T06:01:59.357Z,-1.55
2023-02-27T06:04:27.324Z,-1.55
2023-02-27T06:06:55.361Z,-1.54
2023-02-27T06:09:23.113Z,-1.54
2023-02-27T06:11:50.900Z,-1.58
2023-02-27T06:14:18.787Z,-1.58
2023-02-27T06:16:46.587Z,-1.59
2023-02-27T06:19:15.755Z,-1.59
2023-02-27T06:21:43.531Z,-1.60
2023-02-27T06:24:11.276Z,-1.62
2023-02-27T06:26:39.056Z,-1.63
2023-02-27T06:29:06.840Z,-1.66
2023-02-27T06:31:34.586Z,-1.63
2023-02-27T06:34:02.913Z,-1.62
2023-02-27T06:36:32.177Z,-1.62
2023-02-27T06:39:00.031Z,-1.61
2023-02-27T06:41:28.545Z,-1.59
2023-02-27T06:43:58.059Z,-1.56
2023-02-27T06:46:26.331Z,-1.54
2023-02-27T06:48:54.458Z,-1.53
2023-02-27T06:51:22.273Z,-1.51
2023-02-27T06:53:51.502Z,-1.49
2023-02-27T06:56:19.470Z,-1.47
2023-02-27T06:58:47.260Z,-1.43
2023-02-27T07:01:15.190Z,-1.36
2023-02-27T07:03:43.017Z,-1.30
2023-02-27T07:06:12.009Z,-1.27
2023-02-27T07:09:01.027Z,-1.24
2023-02-27T07:11:29.643Z,-1.17
2023-02-27T07:13:57.707Z,-1.09
2023-02-27T07:16:25.755Z,-1.04
2023-02-27T07:18:53.695Z,-0.96
2023-02-27T07:21:21.478Z,-0.89
2023-02-27T07:23:49.237Z,-0.79
2023-02-27T07:26:17.059Z,-0.64
2023-02-27T07:28:46.171Z,-0.52
2023-02-27T07:31:14.248Z,-0.39
2023-02-27T07:33:42.002Z,-0.28
2023-02-27T07:36:09.974Z,-0.17
2023-02-27T07:38:37.706Z,-0.09
2023-02-27T07:41:05.838Z,0.08
2023-02-27T07:43:33.590Z,0.26
2023-02-27T07:46:04.117Z,0.45
2023-02-27T07:48:32.037Z,0.78
2023-02-27T07:51:00.210Z,1.20
2023-02-27T07:53:28.381Z,1.60
2023-02-27T07:55:56.210Z,2.08
2023-02-27T07:58:23.981Z,2.53
2023-02-27T08:00:52.047Z,2.91
2023-02-27T08:03:21.213Z,3.20
2023-02-27T08:05:49.278Z,3.51
2023-02-27T08:08:17.032Z,3.89
2023-02-27T08:10:44.952Z,4.25
2023-02-27T08:13:12.768Z,4.69
2023-02-27T08:15:41.289Z,4.96
2023-02-27T08:18:09.197Z,5.36
2023-02-27T08:20:38.432Z,5.66
2023-02-27T08:23:06.875Z,6.02
2023-02-27T08:25:34.680Z,6.29
2023-02-27T08:28:02.701Z,6.36
2023-02-27T08:30:30.696Z,6.69
2023-02-27T08:32:58.718Z,6.98
2023-02-27T08:35:26.561Z,7.12
2023-02-27T08:37:55.669Z,7.26
2023-02-27T08:40:23.494Z,7.44
2023-02-27T08:42:52.646Z,7.54
2023-02-27T08:45:20.472Z,7.83
2023-02-27T08:47:48.278Z,8.16
2023-02-27T08:50:16.041Z,8.28
2023-02-27T08:52:43.831Z,8.43
2023-02-27T08:55:13.188Z,8.62
2023-02-27T08:57:40.988Z,8.87
2023-02-27T09:00:14.578Z,8.92
2023-02-27T09:02:42.550Z,9.08
2023-02-27T09:05:11.435Z,9.28
2023-02-27T09:07:39.302Z,9.49
2023-02-27T09:10:08.209Z,9.63
2023-02-27T09:12:37.555Z,9.80
2023-02-27T09:15:06.338Z,10.10
2023-02-27T09:17:34.208Z,10.11
2023-02-27T09:20:02.051Z,10.34
2023-02-27T09:22:30.032Z,10.66
2023-02-27T09:24:57.900Z,10.97
2023-02-27T09:27:26.012Z,11.05
2023-02-27T09:29:56.385Z,11.28
2023-02-27T09:32:24.546Z,11.42
2023-02-27T09:34:52.528Z,11.45
2023-02-27T09:37:20.572Z,11.42
2023-02-27T09:39:48.518Z,11.61
2023-02-27T09:42:20.415Z,11.64
2023-02-27T09:44:51.582Z,11.77
2023-02-27T09:47:27.643Z,12.00
2023-02-27T09:50:08.127Z,11.96
2023-02-27T09:52:38.415Z,12.30
2023-02-27T09:55:07.494Z,12.59
2023-02-27T09:57:45.619Z,12.83
2023-02-27T10:00:30.402Z,12.99
2023-02-27T10:03:12.628Z,13.15
2023-02-27T10:05:45.811Z,13.06
2023-02-27T10:08:22.749Z,13.34
2023-02-27T10:10:55.029Z,13.37
2023-02-27T10:13:37.918Z,13.36
2023-02-27T10:16:06.773Z,13.43
2023-02-27T10:18:38.399Z,13.64
2023-02-27T10:21:11.825Z,13.99
2023-02-27T10:23:44.735Z,13.44
2023-02-27T10:26:20.683Z,13.16
2023-02-27T10:28:48.862Z,13.05
2023-02-27T10:31:21.199Z,13.11
2023-02-27T10:33:51.897Z,12.62
2023-02-27T10:36:33.051Z,12.21
2023-02-27T10:39:07.070Z,12.21
2023-02-27T10:41:36.885Z,11.92
2023-02-27T10:44:05.528Z,11.73
2023-02-27T10:46:38.091Z,11.53
2023-02-27T10:49:18.321Z,11.80
2023-02-27T10:51:47.395Z,12.21
2023-02-27T10:54:19.924Z,12.77
2023-02-27T10:56:52.136Z,13.05
2023-02-27T10:59:23.600Z,13.39
2023-02-27T11:01:54.353Z,13.52
2023-02-27T11:04:30.972Z,13.42
2023-02-27T11:07:00.391Z,13.90
2023-02-27T11:09:30.402Z,14.09
2023-02-27T11:12:12.154Z,13.91
2023-02-27T11:14:50.184Z,13.48
2023-02-27T11:17:27.458Z,13.27
2023-02-27T11:19:57.378Z,12.59
2023-02-27T11:22:27.407Z,12.24
2023-02-27T11:25:18.237Z,12.14
2023-02-27T11:27:47.000Z,12.28
2023-02-27T11:30:24.865Z,12.32
2023-02-27T11:32:54.398Z,12.09
2023-02-27T11:35:29.446Z,12.03
2023-02-27T11:38:01.261Z,12.78
2023-02-27T11:40:31.979Z,13.26
2023-02-27T11:43:04.936Z,15.23
2023-02-27T11:46:14.672Z,16.59
2023-02-27T11:48:26.595Z,15.95
2023-02-27T11:51:17.793Z,15.60
2023-02-27T11:54:29.985Z,15.34
2023-02-27T11:57:01.372Z,15.12
2023-02-27T11:59:40.130Z,14.73
2023-02-27T12:02:19.077Z,14.41
2023-02-27T12:04:53.653Z,14.13
2023-02-27T12:07:27.390Z,14.00
2023-02-27T12:10:02.490Z,13.96
2023-02-27T12:12:36.674Z,13.55
2023-02-27T12:15:16.400Z,13.79
2023-02-27T12:17:48.606Z,13.72
2023-02-27T12:20:31.021Z,13.55
2023-02-27T12:23:03.370Z,13.54
2023-02-27T12:25:37.423Z,13.69
2023-02-27T12:28:16.997Z,13.71
2023-02-27T12:30:50.981Z,13.65
2023-02-27T12:33:26.633Z,13.84
2023-02-27T12:36:00.392Z,14.07
2023-02-27T12:38:30.092Z,14.26
2023-02-27T12:41:09.733Z,14.40
2023-02-27T12:43:43.360Z,14.47
2023-02-27T12:46:26.043Z,14.45
2023-02-27T12:49:10.481Z,13.90
2023-02-27T12:51:52.112Z,13.61
2023-02-27T12:54:46.345Z,13.26
2023-02-27T12:57:33.167Z,13.12
2023-02-27T13:00:11.672Z,13.00
2023-02-27T13:02:49.522Z,12.89
2023-02-27T13:05:32.271Z,12.70
2023-02-27T13:08:06.146Z,12.49
2023-02-27T13:10:40.364Z,12.52
2023-02-27T13:13:17.662Z,12.71
2023-02-27T13:15:52.414Z,12.65
2023-02-27T13:18:32.392Z,12.83
2023-02-27T13:21:08.505Z,12.83
2023-02-27T13:23:47.712Z,13.04
2023-02-27T13:26:22.338Z,12.91
2023-02-27T13:28:51.343Z,12.71
2023-02-27T13:31:31.790Z,12.50
2023-02-27T13:34:09.269Z,12.29
2023-02-27T13:36:41.516Z,11.79
2023-02-27T13:39:43.739Z,11.65
2023-02-27T13:42:49.099Z,11.44
2023-02-27T13:45:50.248Z,11.39
2023-02-27T13:48:46.225Z,11.40
2023-02-27T13:51:44.751Z,11.57
2023-02-27T13:54:33.120Z,11.92
2023-02-27T13:57:16.516Z,12.15
2023-02-27T13:59:56.263Z,12.49
2023-02-27T14:02:34.591Z,12.54
2023-02-27T14:05:06.192Z,12.36
2023-02-27T14:07:48.146Z,12.17
2023-02-27T14:10:22.048Z,12.18
2023-02-27T14:12:49.929Z,12.08
2023-02-27T14:15:50.139Z,11.90
2023-02-27T14:18:58.332Z,11.64
2023-02-27T14:22:05.817Z,11.67
2023-02-27T14:24:41.404Z,11.76
2023-02-27T14:27:20.162Z,11.95
2023-02-27T14:29:51.555Z,12.22
2023-02-27T14:32:23.550Z,12.51
2023-02-27T14:34:55.330Z,12.53
2023-02-27T14:37:26.118Z,12.88
2023-02-27T14:39:56.931Z,12.91
2023-02-27T14:42:33.999Z,12.82
2023-02-27T14:45:02.561Z,12.49
2023-02-27T14:47:32.893Z,12.00
2023-02-27T14:50:03.993Z,11.81
2023-02-27T14:52:33.880Z,11.56
2023-02-27T14:55:16.818Z,11.32
2023-02-27T14:57:56.018Z,11.34
2023-02-27T15:00:35.584Z,11.29
2023-02-27T15:03:13.119Z,11.10
2023-02-27T15:05:42.490Z,11.04
2023-02-27T15:08:17.643Z,11.05
2023-02-27T15:10:45.834Z,11.12
2023-02-27T15:13:25.135Z,11.11
2023-02-27T15:15:56.929Z,11.04
2023-02-27T15:18:26.363Z,11.18
2023-02-27T15:21:01.354Z,11.14
2023-02-27T15:23:29.855Z,10.87
2023-02-27T15:25:59.186Z,10.70
2023-02-27T15:28:31.544Z,10.68
2023-02-27T15:30:59.527Z,10.49
2023-02-27T15:33:31.062Z,10.32
2023-02-27T15:35:59.672Z,10.06
2023-02-27T15:38:34.911Z,9.96
2023-02-27T15:41:04.884Z,9.76
2023-02-27T15:43:32.958Z,9.72
2023-02-27T15:46:01.114Z,9.54
2023-02-27T15:48:29.867Z,9.55
2023-02-27T15:51:01.027Z,9.83
2023-02-27T15:53:33.967Z,9.78
2023-02-27T15:56:06.091Z,9.75
2023-02-27T15:58:36.557Z,9.75
2023-02-27T16:01:08.666Z,9.87
2023-02-27T16:03:39.148Z,9.90
2023-02-27T16:06:13.045Z,9.79
2023-02-27T16:08:47.468Z,9.67
2023-02-27T16:11:22.278Z,9.75
2023-02-27T16:13:50.378Z,9.89
2023-02-27T16:16:31.765Z,10.03
2023-02-27T16:19:02.647Z,10.15
2023-02-27T16:21:32.123Z,10.13
2023-02-27T16:24:22.460Z,10.05
2023-02-27T16:26:53.046Z,10.01
2023-02-27T16:29:23.661Z,9.90
2023-02-27T16:31:54.110Z,9.83
2023-02-27T16:34:42.900Z,9.69
2023-02-27T16:37:20.322Z,9.82
2023-02-27T16:39:51.137Z,10.09
2023-02-27T16:42:19.491Z,10.45
2023-02-27T16:44:47.362Z,10.72
2023-02-27T16:47:15.251Z,10.84
2023-02-27T16:49:44.424Z,10.53
2023-02-27T16:52:12.965Z,10.09
2023-02-27T16:54:40.734Z,9.84
2023-02-27T16:57:10.511Z,9.43
2023-02-27T16:59:40.492Z,9.08
2023-02-27T17:02:13.730Z,8.90
2023-02-27T17:04:44.094Z,8.66
2023-02-27T17:07:15.785Z,8.47
2023-02-27T17:09:44.777Z,8.29
2023-02-27T17:12:14.238Z,8.17
2023-02-27T17:14:41.985Z,7.97
2023-02-27T17:17:11.367Z,7.83
2023-02-27T17:19:39.439Z,7.82
2023-02-27T17:22:07.579Z,7.72
2023-02-27T17:24:35.334Z,7.59
2023-02-27T17:27:03.241Z,7.47
2023-02-27T17:29:32.393Z,7.47
2023-02-27T17:32:00.293Z,7.45
2023-02-27T17:34:28.183Z,7.36
2023-02-27T17:36:55.938Z,7.38
2023-02-27T17:39:23.727Z,7.34
2023-02-27T17:41:52.920Z,7.36
2023-02-27T17:44:20.853Z,7.32
2023-02-27T17:46:50.036Z,7.17
2023-02-27T17:49:17.832Z,7.18
2023-02-27T17:51:45.700Z,7.16
2023-02-27T17:54:13.457Z,7.20
2023-02-27T17:56:41.216Z,7.23
2023-02-27T17:59:09.035Z,7.18
2023-02-27T18:01:36.910Z,7.16
2023-02-27T18:04:07.922Z,7.11
2023-02-27T18:06:35.776Z,7.06
2023-02-27T18:09:03.606Z,7.03
2023-02-27T18:11:31.381Z,6.99
2023-02-27T18:13:59.207Z,7.02
2023-02-27T18:16:27.324Z,6.97
2023-02-27T18:18:55.459Z,6.95
2023-02-27T18:21:24.735Z,6.96
2023-02-27T18:23:53.084Z,6.95
2023-02-27T18:26:30.027Z,6.94
2023-02-27T18:29:00.379Z,6.95
2023-02-27T18:31:30.118Z,6.80
2023-02-27T18:33:58.154Z,6.71
2023-02-27T18:36:28.051Z,6.67
2023-02-27T18:38:56.087Z,6.60
2023-02-27T18:41:23.919Z,6.57
2023-02-27T18:43:52.120Z,6.52
2023-02-27T18:46:20.532Z,6.46
2023-02-27T18:48:48.537Z,6.38
2023-02-27T18:51:17.594Z,6.25
2023-02-27T18:53:49.114Z,6.17
2023-02-27T18:56:18.668Z,6.07
2023-02-27T18:58:46.781Z,6.05
2023-02-27T19:01:20.152Z,6.05
2023-02-27T19:03:48.053Z,5.97
2023-02-27T19:06:16.053Z,5.90
2023-02-27T19:08:43.925Z,5.90
2023-02-27T19:11:22.144Z,5.86
2023-02-27T19:13:50.054Z,5.79
2023-02-27T19:16:18.069Z,5.70
2023-02-27T19:18:45.930Z,5.64
2023-02-27T19:21:13.712Z,5.61
2023-02-27T19:23:41.501Z,5.55
2023-02-27T19:26:09.341Z,5.42
2023-02-27T19:28:38.522Z,5.35
2023-02-27T19:31:10.723Z,5.39
2023-02-27T19:33:39.291Z,5.40
2023-02-27T19:36:08.057Z,5.37
2023-02-27T19:38:36.230Z,5.32
2023-02-27T19:41:04.735Z,5.27
2023-02-27T19:43:32.729Z,5.24
2023-02-27T19:46:05.975Z,5.20
2023-02-27T19:48:34.041Z,5.13
2023-02-27T19:51:03.299Z,5.16
2023-02-27T19:53:31.742Z,5.10
2023-02-27T19:56:01.479Z,5.07
2023-02-27T19:58:29.530Z,5.11
2023-02-27T20:00:57.554Z,5.05
2023-02-27T20:03:27.333Z,4.97
2023-02-27T20:05:55.103Z,4.86
2023-02-27T20:08:23.163Z,4.81
2023-02-27T20:10:55.765Z,4.78
2023-02-27T20:13:23.914Z,4.77
2023-02-27T20:15:58.982Z,4.78
2023-02-27T20:18:29.810Z,4.76
2023-02-27T20:21:03.125Z,4.72
2023-02-27T20:23:31.853Z,4.65
2023-02-27T20:26:00.330Z,4.62
2023-02-27T20:28:29.047Z,4.50
2023-02-27T20:30:56.829Z,4.46
2023-02-27T20:33:24.607Z,4.47
2023-02-27T20:35:53.784Z,4.44
2023-02-27T20:38:22.673Z,4.41
2023-02-27T20:40:51.046Z,4.43
2023-02-27T20:43:18.929Z,4.40
2023-02-27T20:45:46.822Z,4.39
2023-02-27T20:48:14.628Z,4.40
2023-02-27T20:50:42.684Z,4.37
2023-02-27T20:53:14.734Z,4.30
2023-02-27T20:55:48.774Z,4.25
2023-02-27T20:58:17.155Z,4.16
2023-02-27T21:00:45.035Z,4.13
2023-02-27T21:03:12.884Z,4.07
2023-02-27T21:05:47.270Z,4.01
2023-02-27T21:08:16.674Z,4.00
2023-02-27T21:10:44.825Z,3.91
2023-02-27T21:13:12.649Z,3.85
2023-02-27T21:15:40.466Z,3.78
2023-02-27T21:18:09.111Z,3.73
2023-02-27T21:20:36.994Z,3.66
2023-02-27T21:23:04.798Z,3.55
2023-02-27T21:25:34.116Z,3.44
2023-02-27T21:28:02.279Z,3.42
2023-02-27T21:30:30.236Z,3.37
2023-02-27T21:32:58.557Z,3.42
2023-02-27T21:35:26.395Z,3.41
2023-02-27T21:37:54.855Z,3.40
2023-02-27T21:40:22.897Z,3.41
2023-02-27T21:42:52.943Z,3.38
2023-02-27T21:45:20.771Z,3.36
2023-02-27T21:47:48.635Z,3.37
2023-02-27T21:50:18.171Z,3.36
2023-02-27T21:52:46.045Z,3.27
2023-02-27T21:55:13.979Z,3.23
2023-02-27T21:57:41.788Z,3.22
2023-02-27T22:00:12.840Z,3.22
2023-02-27T22:02:40.999Z,3.19
2023-02-27T22:05:09.564Z,3.09
2023-02-27T22:07:38.336Z,3.05
2023-02-27T22:10:06.785Z,3.07
2023-02-27T22:12:34.554Z,3.06
2023-02-27T22:15:02.411Z,3.06
2023-02-27T22:17:31.590Z,3.03
2023-02-27T22:19:59.422Z,2.96
2023-02-27T22:22:27.311Z,2.89
2023-02-27T22:24:55.173Z,2.88
2023-02-27T22:27:22.949Z,2.86
2023-02-27T22:29:50.775Z,2.81
2023-02-27T22:32:18.555Z,2.82
2023-02-27T22:34:47.761Z,2.87
2023-02-27T22:37:16.183Z,2.91
2023-02-27T22:39:44.277Z,2.89
2023-02-27T22:42:12.071Z,2.85
2023-02-27T22:44:39.879Z,2.86
2023-02-27T22:47:07.628Z,2.85
2023-02-27T22:49:37.027Z,2.79
2023-02-27T22:52:06.497Z,2.77
2023-02-27T22:54:34.279Z,2.71
2023-02-27T22:57:02.117Z,2.74
2023-02-27T22:59:29.855Z,2.74
2023-02-27T23:01:57.720Z,2.78
2023-02-27T23:04:25.562Z,2.77
2023-02-27T23:06:55.957Z,2.81
2023-02-27T23:09:27.180Z,2.81
2023-02-27T23:11:55.186Z,2.79
2023-02-27T23:14:23.537Z,2.70
2023-02-27T23:16:51.408Z,2.61
2023-02-27T23:19:21.278Z,2.58
2023-02-27T23:21:49.359Z,2.47
2023-02-27T23:24:19.126Z,2.51
2023-02-27T23:26:49.843Z,2.53
2023-02-27T23:29:18.465Z,2.49
2023-02-27T23:31:46.361Z,2.41
2023-02-27T23:34:14.305Z,2.35
2023-02-27T23:36:42.089Z,2.30
2023-02-27T23:39:10.641Z,2.27
2023-02-27T23:41:38.534Z,2.30
2023-02-27T23:44:25.130Z,2.28
2023-02-27T23:46:52.887Z,2.23
2023-02-27T23:49:20.882Z,2.15
2023-02-27T23:51:48.686Z,2.10
2023-02-27T23:54:16.502Z,2.06
2023-02-27T23:56:44.339Z,2.15
2023-02-27T23:59:13.469Z,2.15
